createdAt,value
2022-11-07T00:01:54.010Z,3.58
2022-11-07T00:04:21.310Z,4.22
2022-11-07T00:06:48.620Z,3.85
2022-11-07T00:09:16.100Z,3.70
2022-11-07T00:11:43.464Z,3.78
2022-11-07T00:14:12.385Z,3.50
2022-11-07T00:16:39.596Z,3.65
2022-11-07T00:19:06.810Z,3.30
2022-11-07T00:21:34.024Z,3.40
2022-11-07T00:24:01.253Z,3.13
2022-11-07T00:26:28.707Z,3.60
2022-11-07T00:28:56.352Z,3.15
2022-11-07T00:31:23.583Z,3.70
2022-11-07T00:33:50.873Z,3.83
2022-11-07T00:36:28.785Z,3.15
2022-11-07T00:38:56.294Z,3.38
2022-11-07T00:41:23.872Z,3.30
2022-11-07T00:43:51.176Z,3.00
2022-11-07T00:46:19.446Z,3.15
2022-11-07T00:48:47.031Z,2.83
2022-11-07T00:51:17.416Z,2.90
2022-11-07T00:53:44.978Z,2.70
2022-11-07T00:56:13.548Z,2.80
2022-11-07T00:58:42.618Z,3.30
2022-11-07T01:01:11.040Z,2.78
2022-11-07T01:03:56.781Z,2.80
2022-11-07T01:06:24.198Z,2.88
2022-11-07T01:08:51.774Z,2.85
2022-11-07T01:11:19.089Z,2.65
2022-11-07T01:13:46.357Z,3.17
2022-11-07T01:16:13.944Z,2.75
2022-11-07T01:18:41.298Z,2.47
2022-11-07T01:21:15.140Z,2.70
2022-11-07T01:23:43.786Z,3.03
2022-11-07T01:26:12.240Z,2.45
2022-11-07T01:28:39.692Z,2.80
2022-11-07T01:31:09.789Z,2.70
2022-11-07T01:33:37.437Z,2.70
2022-11-07T01:36:10.222Z,2.60
2022-11-07T01:38:39.435Z,2.70
2022-11-07T01:41:24.239Z,2.72
2022-11-07T01:44:09.846Z,2.88
2022-11-07T01:46:41.105Z,2.60
2022-11-07T01:49:14.964Z,2.20
2022-11-07T01:51:44.172Z,2.42
2022-11-07T01:54:11.855Z,2.78
2022-11-07T01:56:40.657Z,2.22
2022-11-07T01:59:09.014Z,2.28
2022-11-07T02:01:36.325Z,2.58
2022-11-07T02:04:04.371Z,2.20
2022-11-07T02:06:48.792Z,2.30
2022-11-07T02:09:16.036Z,2.35
2022-11-07T02:11:43.244Z,2.63
2022-11-07T02:14:20.152Z,2.35
2022-11-07T02:16:47.599Z,2.55
2022-11-07T02:19:22.967Z,2.50
2022-11-07T02:21:54.539Z,2.20
2022-11-07T02:24:30.193Z,2.22
2022-11-07T02:26:58.379Z,2.47
2022-11-07T02:29:26.996Z,2.35
2022-11-07T02:32:01.419Z,2.40
2022-11-07T02:34:28.698Z,2.33
2022-11-07T02:36:55.918Z,2.10
2022-11-07T02:39:23.184Z,2.22
2022-11-07T02:41:51.099Z,2.28
2022-11-07T02:44:18.970Z,2.40
2022-11-07T02:46:46.233Z,2.50
2022-11-07T02:49:13.526Z,2.85
2022-11-07T02:51:41.861Z,2.47
2022-11-07T02:54:09.114Z,2.13
2022-11-07T02:56:36.590Z,2.40
2022-11-07T02:59:04.451Z,2.15
2022-11-07T03:01:31.794Z,2.60
2022-11-07T03:03:59.082Z,2.45
2022-11-07T03:06:26.575Z,2.30
2022-11-07T03:08:53.822Z,2.67
2022-11-07T03:11:21.321Z,2.60
2022-11-07T03:13:48.819Z,2.88
2022-11-07T03:16:16.588Z,3.10
2022-11-07T03:18:43.927Z,2.75
2022-11-07T03:21:11.306Z,3.05
2022-11-07T03:23:38.557Z,2.67
2022-11-07T03:26:06.085Z,2.92
2022-11-07T03:28:33.483Z,2.65
2022-11-07T03:31:01.553Z,3.30
2022-11-07T03:33:30.160Z,2.95
2022-11-07T03:35:57.422Z,2.90
2022-11-07T03:38:24.661Z,2.72
2022-11-07T03:40:51.919Z,2.92
2022-11-07T03:43:19.221Z,2.55
2022-11-07T03:45:46.394Z,2.97
2022-11-07T03:48:13.604Z,3.08
2022-11-07T03:50:40.864Z,2.85
2022-11-07T03:53:08.048Z,2.92
2022-11-07T03:55:35.292Z,2.80
2022-11-07T03:58:02.855Z,2.58
2022-11-07T04:00:30.095Z,2.53
2022-11-07T04:02:57.543Z,2.60
2022-11-07T04:05:24.956Z,2.55
2022-11-07T04:07:52.254Z,2.40
2022-11-07T04:10:19.447Z,2.63
2022-11-07T04:13:05.451Z,2.40
2022-11-07T04:15:51.116Z,2.67
2022-11-07T04:18:18.368Z,2.60
2022-11-07T04:20:45.550Z,2.50
2022-11-07T04:23:13.026Z,2.40
2022-11-07T04:25:59.081Z,2.65
2022-11-07T04:28:26.291Z,2.42
2022-11-07T04:30:53.461Z,2.47
2022-11-07T04:33:20.802Z,2.30
2022-11-07T04:35:48.114Z,2.75
2022-11-07T04:38:15.329Z,2.35
2022-11-07T04:40:42.546Z,2.80
2022-11-07T04:43:10.538Z,2.47
2022-11-07T04:45:40.946Z,2.85
2022-11-07T04:48:10.724Z,2.38
2022-11-07T04:50:38.008Z,2.45
2022-11-07T04:53:05.285Z,2.42
2022-11-07T04:55:32.500Z,2.92
2022-11-07T04:57:59.846Z,2.58
2022-11-07T05:00:27.227Z,2.42
2022-11-07T05:02:54.570Z,2.42
2022-11-07T05:05:21.915Z,3.10
2022-11-07T05:07:49.377Z,2.63
2022-11-07T05:10:24.707Z,3.10
2022-11-07T05:12:52.328Z,2.70
2022-11-07T05:15:20.311Z,2.70
2022-11-07T05:17:47.743Z,2.72
2022-11-07T05:20:33.793Z,2.60
2022-11-07T05:23:13.484Z,2.60
2022-11-07T05:25:59.324Z,2.58
2022-11-07T05:28:35.308Z,2.97
2022-11-07T05:31:06.028Z,2.63
2022-11-07T05:33:33.457Z,2.38
2022-11-07T05:36:16.265Z,2.60
2022-11-07T05:38:44.400Z,2.60
2022-11-07T05:41:11.920Z,2.53
2022-11-07T05:43:39.229Z,2.42
2022-11-07T05:46:07.070Z,2.58
2022-11-07T05:48:34.538Z,3.20
2022-11-07T05:51:02.200Z,2.45
2022-11-07T05:53:29.580Z,2.78
2022-11-07T05:55:57.222Z,2.55
2022-11-07T05:58:24.484Z,2.55
2022-11-07T06:00:51.972Z,2.80
2022-11-07T06:03:22.716Z,2.75
2022-11-07T06:05:50.049Z,3.13
2022-11-07T06:08:17.234Z,2.75
2022-11-07T06:10:44.645Z,2.55
2022-11-07T06:13:14.415Z,2.50
2022-11-07T06:15:42.475Z,2.85
2022-11-07T06:18:12.718Z,2.70
2022-11-07T06:20:40.085Z,2.45
2022-11-07T06:23:07.588Z,2.83
2022-11-07T06:25:35.754Z,2.60
2022-11-07T06:28:04.247Z,2.80
2022-11-07T06:30:32.231Z,2.80
2022-11-07T06:33:03.335Z,2.22
2022-11-07T06:35:30.957Z,2.60
2022-11-07T06:37:58.241Z,3.13
2022-11-07T06:40:25.494Z,4.28
2022-11-07T06:42:54.949Z,3.03
2022-11-07T06:45:22.276Z,2.85
2022-11-07T06:47:49.511Z,2.55
2022-11-07T06:50:16.764Z,3.40
2022-11-07T06:52:43.982Z,2.70
2022-11-07T06:55:13.292Z,2.92
2022-11-07T07:00:08.804Z,2.70
2022-11-07T07:02:57.399Z,2.47
2022-11-07T07:05:27.901Z,3.33
2022-11-07T07:07:56.007Z,2.85
2022-11-07T07:10:25.192Z,2.63
2022-11-07T07:15:23.016Z,2.85
2022-11-07T07:17:50.366Z,2.85
2022-11-07T07:20:17.572Z,2.30
2022-11-07T07:22:45.284Z,2.15
2022-11-07T07:25:12.665Z,2.60
2022-11-07T07:27:42.541Z,2.53
2022-11-07T07:30:13.384Z,2.95
2022-11-07T07:32:40.754Z,3.05
2022-11-07T07:35:08.190Z,2.50
2022-11-07T07:37:35.460Z,2.90
2022-11-07T07:40:02.728Z,2.53
2022-11-07T07:42:29.956Z,2.45
2022-11-07T07:44:57.293Z,2.72
2022-11-07T07:47:25.923Z,2.45
2022-11-07T07:49:53.175Z,2.40
2022-11-07T07:52:20.888Z,2.83
2022-11-07T07:54:48.477Z,2.85
2022-11-07T07:57:15.811Z,2.63
2022-11-07T07:59:43.014Z,2.72
2022-11-07T08:02:11.974Z,2.88
2022-11-07T08:04:39.335Z,2.78
2022-11-07T08:07:06.556Z,2.85
2022-11-07T08:09:36.676Z,3.00
2022-11-07T08:12:04.938Z,3.00
2022-11-07T08:14:32.805Z,3.17
2022-11-07T08:17:00.120Z,2.83
2022-11-07T08:19:27.338Z,3.38
2022-11-07T08:21:54.895Z,2.95
2022-11-07T08:24:22.092Z,2.78
2022-11-07T08:26:49.304Z,3.15
2022-11-07T08:29:16.548Z,3.20
2022-11-07T08:31:43.840Z,2.97
2022-11-07T08:34:11.137Z,3.15
2022-11-07T08:36:38.433Z,2.65
2022-11-07T08:39:05.628Z,3.03
2022-11-07T08:41:32.842Z,2.58
2022-11-07T08:44:00.124Z,2.60
2022-11-07T08:46:30.463Z,2.45
2022-11-07T08:48:57.751Z,2.30
2022-11-07T08:51:25.269Z,2.35
2022-11-07T08:53:52.493Z,2.17
2022-11-07T08:56:19.741Z,2.33
2022-11-07T08:58:49.499Z,2.50
2022-11-07T09:01:17.019Z,2.55
2022-11-07T09:03:49.211Z,2.30
2022-11-07T09:06:20.856Z,2.35
2022-11-07T09:08:48.095Z,2.80
2022-11-07T09:11:18.687Z,2.20
2022-11-07T09:13:49.738Z,2.35
2022-11-07T09:16:17.456Z,2.28
2022-11-07T09:18:45.087Z,2.45
2022-11-07T09:21:14.482Z,2.80
2022-11-07T09:23:43.736Z,2.20
2022-11-07T09:26:10.982Z,3.03
2022-11-07T09:28:38.206Z,2.42
2022-11-07T09:31:06.117Z,2.80
2022-11-07T09:33:33.552Z,2.13
2022-11-07T09:36:05.345Z,2.55
2022-11-07T09:38:32.776Z,2.92
2022-11-07T09:41:06.151Z,2.72
2022-11-07T09:43:52.518Z,2.85
2022-11-07T09:46:28.301Z,2.70
2022-11-07T09:51:42.234Z,3.13
2022-11-07T09:54:14.450Z,2.63
2022-11-07T09:56:42.109Z,2.80
2022-11-07T09:59:14.552Z,2.85
2022-11-07T10:01:42.211Z,3.72
2022-11-07T10:04:25.161Z,3.00
2022-11-07T10:07:02.186Z,2.80
2022-11-07T10:09:35.335Z,3.53
2022-11-07T10:12:25.849Z,3.10
2022-11-07T10:15:04.085Z,3.45
2022-11-07T10:17:33.839Z,3.00
2022-11-07T10:20:07.851Z,2.92
2022-11-07T10:23:17.802Z,3.20
2022-11-07T10:25:51.221Z,3.20
2022-11-07T10:28:19.838Z,3.60
2022-11-07T10:30:49.331Z,3.90
2022-11-07T10:33:22.699Z,3.17
2022-11-07T10:35:57.620Z,3.60
2022-11-07T10:38:29.458Z,3.42
2022-11-07T10:40:56.825Z,3.05
2022-11-07T10:43:24.012Z,2.65
2022-11-07T10:45:54.073Z,2.50
2022-11-07T10:48:21.370Z,3.20
2022-11-07T10:50:53.593Z,2.75
2022-11-07T10:53:22.320Z,3.00
2022-11-07T10:55:51.848Z,3.40
2022-11-07T10:58:33.915Z,3.25
2022-11-07T11:01:08.515Z,2.85
2022-11-07T11:03:44.727Z,3.03
2022-11-07T11:06:18.170Z,3.03
2022-11-07T11:08:47.050Z,2.85
2022-11-07T11:11:16.226Z,2.92
2022-11-07T11:13:43.464Z,3.20
2022-11-07T11:16:31.135Z,2.78
2022-11-07T11:18:59.376Z,2.95
2022-11-07T11:21:28.186Z,3.20
2022-11-07T11:23:55.752Z,2.75
2022-11-07T11:26:29.990Z,3.00
2022-11-07T11:29:09.391Z,2.72
2022-11-07T11:31:38.913Z,2.75
2022-11-07T11:34:06.251Z,2.80
2022-11-07T11:36:36.872Z,2.95
2022-11-07T11:39:13.587Z,2.97
2022-11-07T11:42:09.748Z,2.97
2022-11-07T11:44:42.060Z,3.33
2022-11-07T11:47:18.441Z,2.80
2022-11-07T11:49:52.975Z,3.38
2022-11-07T11:52:22.352Z,2.80
2022-11-07T11:54:51.687Z,3.10
2022-11-07T11:57:21.941Z,3.22
2022-11-07T11:59:49.109Z,3.60
2022-11-07T12:03:00.805Z,3.17
2022-11-07T12:05:46.408Z,3.45
2022-11-07T12:08:19.105Z,3.25
2022-11-07T12:10:49.360Z,3.40
2022-11-07T12:13:29.088Z,3.20
2022-11-07T12:16:02.438Z,3.10
2022-11-07T12:18:38.932Z,2.95
2022-11-07T12:21:14.018Z,3.15
2022-11-07T12:24:07.087Z,3.30
2022-11-07T12:26:42.818Z,2.97
2022-11-07T12:31:49.540Z,3.50
2022-11-07T12:34:36.316Z,3.00
2022-11-07T12:37:10.723Z,3.20
2022-11-07T12:39:55.871Z,3.05
2022-11-07T12:42:39.975Z,2.88
2022-11-07T12:45:33.955Z,2.90
2022-11-07T12:48:13.294Z,3.10
2022-11-07T12:50:41.057Z,2.88
2022-11-07T12:53:14.750Z,2.90
2022-11-07T12:55:49.819Z,3.28
2022-11-07T12:58:32.361Z,3.10
2022-11-07T13:01:00.413Z,3.20
2022-11-07T13:03:40.153Z,2.78
2022-11-07T13:06:13.641Z,3.00
2022-11-07T13:08:50.110Z,2.88
2022-11-07T13:11:17.325Z,3.08
2022-11-07T13:14:05.732Z,3.75
2022-11-07T13:16:36.283Z,3.00
2022-11-07T13:19:29.431Z,3.03
2022-11-07T13:22:20.056Z,2.60
2022-11-07T13:24:54.570Z,2.90
2022-11-07T13:27:23.335Z,3.10
2022-11-07T13:29:50.573Z,2.83
2022-11-07T13:32:17.820Z,3.40
2022-11-07T13:35:02.853Z,3.50
2022-11-07T13:37:36.314Z,3.15
2022-11-07T13:40:25.888Z,3.00
2022-11-07T13:42:59.318Z,3.17
2022-11-07T13:45:51.205Z,3.00
2022-11-07T13:48:35.399Z,3.17
2022-11-07T13:51:08.038Z,3.13
2022-11-07T13:54:02.040Z,2.78
2022-11-07T13:56:56.246Z,2.80
2022-11-07T13:59:31.332Z,2.70
2022-11-07T14:02:02.838Z,2.72
2022-11-07T14:04:32.069Z,3.22
2022-11-07T14:07:04.022Z,2.65
2022-11-07T14:09:32.301Z,2.80
2022-11-07T14:11:59.567Z,3.05
2022-11-07T14:14:28.838Z,2.70
2022-11-07T14:19:33.035Z,3.20
2022-11-07T14:22:01.509Z,2.97
2022-11-07T14:24:33.067Z,2.60
2022-11-07T14:27:08.741Z,2.80
2022-11-07T14:32:07.691Z,3.17
2022-11-07T14:34:36.230Z,2.67
2022-11-07T14:37:06.520Z,2.78
2022-11-07T14:39:33.932Z,2.40
2022-11-07T14:42:03.409Z,3.15
2022-11-07T14:44:53.408Z,2.90
2022-11-07T14:47:27.229Z,2.85
2022-11-07T14:49:55.071Z,2.58
2022-11-07T14:52:49.909Z,2.47
2022-11-07T14:55:49.483Z,3.28
2022-11-07T14:58:24.701Z,2.40
2022-11-07T15:00:53.184Z,2.60
2022-11-07T15:03:24.507Z,2.95
2022-11-07T15:05:51.861Z,2.50
2022-11-07T15:08:30.283Z,2.10
2022-11-07T15:11:06.886Z,2.42
2022-11-07T15:13:34.797Z,2.50
2022-11-07T15:16:06.644Z,2.30
2022-11-07T15:18:42.181Z,2.38
2022-11-07T15:21:32.447Z,2.40
2022-11-07T15:24:00.552Z,2.25
2022-11-07T15:26:32.916Z,2.33
2022-11-07T15:29:15.223Z,2.30
2022-11-07T15:31:51.570Z,2.30
2022-11-07T15:34:29.076Z,2.38
2022-11-07T15:37:18.888Z,2.30
2022-11-07T15:39:46.561Z,2.65
2022-11-07T15:42:13.948Z,2.50
2022-11-07T15:44:41.352Z,2.40
2022-11-07T15:47:08.874Z,2.20
2022-11-07T15:49:51.732Z,2.88
2022-11-07T15:52:18.922Z,2.40
2022-11-07T15:54:46.318Z,2.30
2022-11-07T15:57:15.587Z,2.10
2022-11-07T15:59:43.691Z,2.50
2022-11-07T16:02:15.758Z,2.30
2022-11-07T16:04:43.813Z,2.60
2022-11-07T16:07:20.823Z,2.50
2022-11-07T16:09:51.231Z,2.30
2022-11-07T16:12:22.073Z,2.38
2022-11-07T16:14:49.327Z,3.05
2022-11-07T16:17:17.799Z,2.30
2022-11-07T16:19:45.200Z,2.88
2022-11-07T16:22:14.756Z,2.30
2022-11-07T16:24:42.044Z,2.40
2022-11-07T16:27:12.282Z,2.58
2022-11-07T16:29:40.693Z,2.03
2022-11-07T16:32:07.978Z,2.22
2022-11-07T16:34:35.190Z,2.25
2022-11-07T16:37:02.525Z,2.13
2022-11-07T16:39:30.183Z,2.47
2022-11-07T16:41:57.408Z,2.20
2022-11-07T16:44:27.730Z,2.72
2022-11-07T16:46:56.436Z,2.10
2022-11-07T16:49:32.491Z,2.05
2022-11-07T16:51:59.920Z,1.98
2022-11-07T16:54:30.067Z,2.05
2022-11-07T16:56:57.318Z,2.25
2022-11-07T16:59:25.360Z,2.42
2022-11-07T17:01:53.121Z,2.30
2022-11-07T17:04:20.651Z,2.28
2022-11-07T17:06:48.117Z,2.50
2022-11-07T17:09:16.789Z,2.80
2022-11-07T17:11:44.840Z,2.17
2022-11-07T17:14:12.249Z,2.30
2022-11-07T17:16:40.936Z,2.22
2022-11-07T17:19:08.182Z,2.53
2022-11-07T17:21:36.847Z,2.60
2022-11-07T17:24:04.482Z,2.90
2022-11-07T17:26:34.502Z,2.42
2022-11-07T17:29:02.148Z,2.72
2022-11-07T17:31:29.427Z,2.45
2022-11-07T17:33:56.704Z,2.90
2022-11-07T17:36:36.562Z,2.30
2022-11-07T17:39:08.041Z,2.50
2022-11-07T17:41:35.383Z,2.13
2022-11-07T17:44:03.689Z,2.45
2022-11-07T17:46:32.708Z,2.25
2022-11-07T17:49:01.167Z,2.55
2022-11-07T17:51:28.441Z,2.03
2022-11-07T17:53:57.108Z,2.50
2022-11-07T17:56:26.824Z,2.35
2022-11-07T17:58:55.576Z,2.47
2022-11-07T18:01:25.646Z,2.58
2022-11-07T18:03:53.971Z,2.30
2022-11-07T18:06:23.567Z,2.10
2022-11-07T18:08:52.842Z,2.50
2022-11-07T18:11:21.547Z,2.75
2022-11-07T18:13:55.420Z,2.17
2022-11-07T18:16:28.053Z,2.33
2022-11-07T18:19:00.606Z,2.58
2022-11-07T18:21:28.021Z,2.45
2022-11-07T18:23:55.277Z,2.72
2022-11-07T18:26:30.649Z,2.42
2022-11-07T18:29:00.992Z,2.38
2022-11-07T18:31:28.265Z,2.60
2022-11-07T18:33:59.887Z,2.30
2022-11-07T18:36:29.787Z,2.03
2022-11-07T18:38:57.265Z,2.15
2022-11-07T18:41:25.180Z,2.33
2022-11-07T18:43:54.151Z,2.00
2022-11-07T18:46:22.054Z,2.33
2022-11-07T18:48:50.692Z,2.33
2022-11-07T18:51:22.778Z,2.22
2022-11-07T18:53:50.620Z,2.10
2022-11-07T18:56:18.431Z,2.28
2022-11-07T18:58:45.660Z,2.58
2022-11-07T19:01:17.737Z,2.40
2022-11-07T19:03:45.418Z,2.40
2022-11-07T19:06:14.712Z,2.10
2022-11-07T19:08:47.235Z,2.20
2022-11-07T19:11:16.719Z,2.22
2022-11-07T19:13:47.101Z,2.10
2022-11-07T19:16:19.193Z,2.28
2022-11-07T19:21:20.461Z,2.17
2022-11-07T19:23:48.888Z,2.40
2022-11-07T19:26:16.321Z,2.35
2022-11-07T19:28:47.623Z,2.42
2022-11-07T19:31:15.421Z,2.45
2022-11-07T19:33:43.177Z,2.33
2022-11-07T19:36:15.254Z,2.78
2022-11-07T19:38:42.526Z,2.58
2022-11-07T19:41:10.815Z,2.33
2022-11-07T19:43:38.244Z,2.53
2022-11-07T19:46:20.712Z,2.20
2022-11-07T19:48:48.144Z,2.20
2022-11-07T19:51:21.602Z,2.22
2022-11-07T19:53:56.910Z,2.72
2022-11-07T19:56:24.916Z,2.95
2022-11-07T19:58:52.242Z,2.70
2022-11-07T20:01:24.662Z,2.65
2022-11-07T20:03:52.809Z,2.38
2022-11-07T20:06:22.880Z,2.28
2022-11-07T20:08:50.261Z,2.28
2022-11-07T20:11:22.144Z,2.72
2022-11-07T20:13:49.401Z,2.35
2022-11-07T20:16:16.736Z,2.60
2022-11-07T20:18:47.018Z,2.45
2022-11-07T20:21:19.020Z,2.60
2022-11-07T20:23:46.718Z,2.17
2022-11-07T20:26:16.657Z,2.58
2022-11-07T20:28:43.988Z,2.15
2022-11-07T20:31:12.801Z,2.40
2022-11-07T20:33:40.028Z,2.25
2022-11-07T20:36:09.753Z,2.38
2022-11-07T20:38:37.397Z,2.40
2022-11-07T20:41:05.582Z,2.78
2022-11-07T20:43:33.906Z,2.63
2022-11-07T20:46:05.689Z,2.70
2022-11-07T20:48:33.013Z,2.35
2022-11-07T20:51:07.226Z,2.67
2022-11-07T20:53:35.246Z,2.40
2022-11-07T20:56:05.308Z,2.55
2022-11-07T20:58:32.990Z,2.65
2022-11-07T21:01:00.415Z,2.70
2022-11-07T21:03:27.824Z,2.80
2022-11-07T21:05:55.367Z,2.50
2022-11-07T21:08:22.676Z,3.00
2022-11-07T21:10:51.425Z,2.30
2022-11-07T21:13:19.359Z,2.33
2022-11-07T21:15:52.697Z,2.33
2022-11-07T21:18:19.917Z,2.30
2022-11-07T21:20:49.218Z,2.33
2022-11-07T21:23:17.053Z,2.75
2022-11-07T21:25:45.802Z,2.80
2022-11-07T21:28:17.032Z,2.65
2022-11-07T21:31:04.470Z,2.35
2022-11-07T21:33:32.190Z,2.45
2022-11-07T21:35:59.563Z,2.38
2022-11-07T21:38:26.887Z,2.55
2022-11-07T21:40:54.246Z,2.30
2022-11-07T21:43:21.526Z,2.30
2022-11-07T21:45:48.749Z,2.90
2022-11-07T21:48:16.677Z,2.45
2022-11-07T21:50:45.322Z,2.40
2022-11-07T21:53:13.119Z,3.22
2022-11-07T21:55:43.011Z,2.28
2022-11-07T21:58:10.282Z,2.30
2022-11-07T22:00:39.376Z,2.63
2022-11-07T22:05:33.824Z,2.72
2022-11-07T22:08:01.074Z,2.38
2022-11-07T22:10:28.292Z,2.20
2022-11-07T22:12:55.585Z,2.85
2022-11-07T22:15:25.459Z,2.22
2022-11-07T22:17:53.192Z,2.38
2022-11-07T22:20:20.600Z,2.50
2022-11-07T22:22:47.852Z,2.70
2022-11-07T22:25:15.060Z,2.45
2022-11-07T22:27:42.318Z,2.53
2022-11-07T22:30:09.833Z,2.45
2022-11-07T22:32:37.063Z,2.47
2022-11-07T22:35:09.004Z,2.45
2022-11-07T22:37:36.630Z,2.20
2022-11-07T22:40:03.928Z,2.45
2022-11-07T22:42:31.161Z,2.20
2022-11-07T22:44:58.382Z,2.50
2022-11-07T22:47:25.604Z,2.20
2022-11-07T22:49:52.872Z,2.67
2022-11-07T22:52:20.071Z,2.35
2022-11-07T22:54:47.304Z,2.58
2022-11-07T22:57:17.794Z,2.30
2022-11-07T22:59:45.436Z,2.20
2022-11-07T23:02:12.757Z,2.03
2022-11-07T23:04:40.147Z,2.30
2022-11-07T23:07:07.415Z,2.25
2022-11-07T23:09:34.677Z,2.50
2022-11-07T23:12:02.066Z,2.00
2022-11-07T23:14:29.264Z,2.30
2022-11-07T23:16:57.217Z,2.55
2022-11-07T23:19:25.907Z,2.22
2022-11-07T23:21:54.679Z,2.40
2022-11-07T23:24:21.965Z,2.10
2022-11-07T23:26:49.256Z,2.35
2022-11-07T23:29:20.993Z,2.22
2022-11-07T23:31:49.749Z,2.38
2022-11-07T23:34:17.511Z,2.20
2022-11-07T23:36:45.210Z,2.17
2022-11-07T23:39:18.138Z,2.28
2022-11-07T23:41:45.671Z,2.55
2022-11-07T23:44:13.463Z,2.25
2022-11-07T23:46:59.376Z,2.58
2022-11-07T23:49:35.492Z,2.47
2022-11-07T23:52:02.750Z,1.95
2022-11-07T23:54:50.213Z,1.77
2022-11-07T23:57:17.473Z,1.98
